createdAt,value
2023-02-13T00:00:03.427Z,97.63
2023-02-13T00:10:25.322Z,97.72
2023-02-13T00:20:57.045Z,97.15
2023-02-13T00:31:20.415Z,98.19
2023-02-13T00:41:41.858Z,98.14
2023-02-13T00:52:03.272Z,97.67
2023-02-13T01:02:24.957Z,98.05
2023-02-13T01:12:46.548Z,97.58
2023-02-13T01:23:07.979Z,97.95
2023-02-13T01:33:29.740Z,98.09
2023-02-13T01:43:53.676Z,98.18
2023-02-13T01:54:23.165Z,98.10
2023-02-13T02:04:45.565Z,98.73
2023-02-13T02:15:07.461Z,98.41
2023-02-13T02:25:37.944Z,97.99
2023-02-13T02:35:59.294Z,98.06
2023-02-13T02:47:13.055Z,97.73
2023-02-13T02:57:56.922Z,97.40
2023-02-13T03:08:38.788Z,97.83
2023-02-13T03:19:18.920Z,97.71
2023-02-13T03:30:05.656Z,97.84
2023-02-13T03:41:00.685Z,97.86
2023-02-13T03:51:24.765Z,97.93
2023-02-13T04:01:49.355Z,97.87
2023-02-13T04:12:10.763Z,97.93
2023-02-13T04:22:32.130Z,97.92
2023-02-13T04:32:53.521Z,98.03
2023-02-13T04:43:14.869Z,97.84
2023-02-13T04:53:36.216Z,97.64
2023-02-13T05:03:57.573Z,97.87
2023-02-13T05:14:19.078Z,97.69
2023-02-13T05:24:40.432Z,97.55
2023-02-13T05:35:04.333Z,98.00
2023-02-13T05:45:25.950Z,97.65
2023-02-13T05:55:47.305Z,98.36
2023-02-13T06:06:09.233Z,98.17
2023-02-13T06:16:31.169Z,97.81
2023-02-13T06:26:52.605Z,98.39
2023-02-13T06:37:13.973Z,98.09
2023-02-13T06:47:35.743Z,98.09
2023-02-13T06:57:57.086Z,97.83
2023-02-13T07:08:19.135Z,97.74
2023-02-13T07:18:40.550Z,97.59
2023-02-13T07:29:11.584Z,97.37
2023-02-13T07:39:33.571Z,97.47
2023-02-13T07:49:55.004Z,97.72
2023-02-13T08:00:17.165Z,97.18
2023-02-13T08:10:58.799Z,97.28
2023-02-13T08:21:20.160Z,96.29
2023-02-13T08:31:41.708Z,96.01
2023-02-13T08:42:04.106Z,96.30
2023-02-13T08:52:25.615Z,96.25
2023-02-13T09:02:47.058Z,96.15
2023-02-13T09:13:08.636Z,95.84
2023-02-13T09:23:34.128Z,95.77
2023-02-13T09:33:55.569Z,95.53
2023-02-13T09:44:35.430Z,94.61
2023-02-13T09:54:56.827Z,94.38
2023-02-13T10:05:30.346Z,93.99
2023-02-13T10:15:57.783Z,93.15
2023-02-13T10:26:21.173Z,92.48
2023-02-13T10:36:46.981Z,93.50
2023-02-13T10:47:17.707Z,92.54
2023-02-13T10:57:58.071Z,93.28
2023-02-13T11:08:19.490Z,92.12
2023-02-13T11:18:44.118Z,91.62
2023-02-13T11:29:24.191Z,92.59
2023-02-13T11:39:46.644Z,92.44
2023-02-13T11:50:28.479Z,92.40
2023-02-13T12:00:49.857Z,92.38
2023-02-13T12:11:23.650Z,92.14
2023-02-13T12:21:45.003Z,90.02
2023-02-13T12:32:25.378Z,90.86
2023-02-13T12:43:05.688Z,90.81
2023-02-13T12:53:28.398Z,90.14
2023-02-13T13:03:50.846Z,87.20
2023-02-13T13:14:17.849Z,88.74
2023-02-13T13:24:39.218Z,87.62
2023-02-13T13:35:00.767Z,87.39
2023-02-13T13:45:28.282Z,88.13
2023-02-13T13:55:49.620Z,88.47
2023-02-13T14:06:12.802Z,87.71
2023-02-13T14:16:42.078Z,88.78
2023-02-13T14:27:06.185Z,88.07
2023-02-13T14:37:31.032Z,88.59
2023-02-13T14:47:53.975Z,88.12
2023-02-13T14:58:18.818Z,88.68
2023-02-13T15:08:47.957Z,88.92
2023-02-13T15:19:14.717Z,88.63
2023-02-13T15:29:49.311Z,89.53
2023-02-13T15:40:28.085Z,89.60
2023-02-13T15:50:49.467Z,89.65
2023-02-13T16:01:11.118Z,90.41
2023-02-13T16:11:39.396Z,90.41
2023-02-13T16:22:07.573Z,90.12
2023-02-13T16:32:34.240Z,90.64
2023-02-13T16:43:15.581Z,89.82
2023-02-13T16:53:37.793Z,90.25
2023-02-13T17:03:59.312Z,90.26
2023-02-13T17:14:20.867Z,90.76
2023-02-13T17:24:42.233Z,90.80
2023-02-13T17:35:03.754Z,90.47
2023-02-13T17:45:26.926Z,89.75
2023-02-13T17:55:48.297Z,90.09
2023-02-13T18:06:13.941Z,90.00
2023-02-13T18:16:38.105Z,89.31
2023-02-13T18:26:59.455Z,90.11
2023-02-13T18:37:21.348Z,90.28
2023-02-13T18:47:42.829Z,89.26
2023-02-13T18:58:04.221Z,89.70
2023-02-13T19:08:25.591Z,89.77
2023-02-13T19:18:48.175Z,89.88
2023-02-13T19:29:09.659Z,90.35
2023-02-13T19:39:31.040Z,90.56
2023-02-13T19:49:53.443Z,90.82
2023-02-13T20:00:15.298Z,91.00
2023-02-13T20:10:36.837Z,90.95
2023-02-13T20:20:58.550Z,91.47
2023-02-13T20:31:21.483Z,91.60
2023-02-13T20:41:48.408Z,92.25
2023-02-13T20:52:09.875Z,91.98
2023-02-13T21:02:31.343Z,91.88
2023-02-13T21:12:52.843Z,91.49
2023-02-13T21:23:14.216Z,91.54
2023-02-13T21:33:36.438Z,91.43
2023-02-13T21:43:57.788Z,91.40
2023-02-13T21:54:19.166Z,91.74
2023-02-13T22:04:41.901Z,91.73
2023-02-13T22:15:04.253Z,91.56
2023-02-13T22:25:25.671Z,91.54
2023-02-13T22:35:47.312Z,91.98
2023-02-13T22:46:13.228Z,92.50
2023-02-13T22:56:34.684Z,91.57
2023-02-13T23:06:56.145Z,93.21
2023-02-13T23:17:36.152Z,93.94
2023-02-13T23:27:58.113Z,94.49
2023-02-13T23:38:19.672Z,94.04
2023-02-13T23:48:41.031Z,94.04
2023-02-13T23:59:02.424Z,94.12
